Time;durP1;ratioP1;P1;durP2;ratioP2;P2;SDS_P1;SDS_P2;PMS_P1;PMS_P2;Temp;Humidity;BMP_temperature;BMP_pressure;BME280_temperature;BME280_humidity;BME280_pressure;Samples;Min_cycle;Max_cycle;Signal;HPM_P1;HPM_P2
2023/05/07 00:00:09;;;;;;;3.13;1.30;;;;;;;12.85;100.00;98655.13;5014971;28;20017;-75
2023/05/07 00:02:35;;;;;;;2.08;1.45;;;;;;;12.81;100.00;98667.50;5032597;28;20075;-76
2023/05/07 00:05:02;;;;;;;5.82;1.73;;;;;;;12.85;100.00;98668.72;5033270;28;20379;-75
2023/05/07 00:07:27;;;;;;;1.95;1.35;;;;;;;12.75;100.00;98652.09;5032918;28;20074;-74
2023/05/07 00:09:52;;;;;;;2.40;1.65;;;;;;;12.63;100.00;98643.84;5031572;28;20037;-75
2023/05/07 00:12:18;;;;;;;3.33;1.65;;;;;;;12.68;100.00;98640.44;5016053;28;20835;-74
2023/05/07 00:14:43;;;;;;;3.00;1.95;;;;;;;12.70;100.00;98651.91;5032415;28;20108;-74
2023/05/07 00:17:08;;;;;;;2.83;1.90;;;;;;;12.70;100.00;98660.06;5031487;28;20525;-75
2023/05/07 00:19:34;;;;;;;3.75;1.80;;;;;;;12.65;100.00;98652.59;5014599;28;20029;-74
2023/05/07 00:21:59;;;;;;;3.80;2.10;;;;;;;12.60;100.00;98657.00;5031214;28;20107;-76
2023/05/07 00:24:24;;;;;;;4.18;2.10;;;;;;;12.62;100.00;98663.88;5025974;28;20021;-75
2023/05/07 00:26:50;;;;;;;4.88;2.10;;;;;;;12.64;100.00;98660.94;5030824;28;20025;-74
2023/05/07 00:29:15;;;;;;;3.08;1.67;;;;;;;12.52;100.00;98638.28;5031814;28;20083;-75
2023/05/07 00:31:40;;;;;;;3.17;1.85;;;;;;;12.46;100.00;98637.28;5016523;28;22543;-76
2023/05/07 00:34:06;;;;;;;4.90;1.77;;;;;;;12.45;100.00;98641.06;5042155;28;20083;-74
2023/05/07 00:36:31;;;;;;;3.20;1.75;;;;;;;12.50;100.00;98650.19;5022079;28;20068;-75
2023/05/07 00:39:00;;;;;;;2.90;1.85;;;;;;;12.51;100.00;98648.31;5035886;28;20029;-76
2023/05/07 00:41:25;;;;;;;4.07;2.17;;;;;;;12.42;100.00;98636.91;5021803;28;20028;-76
2023/05/07 00:43:54;;;;;;;4.95;1.88;;;;;;;12.39;100.00;98642.75;5036150;28;20029;-76
2023/05/07 00:46:21;;;;;;;2.28;1.45;;;;;;;12.25;100.00;98608.63;5032322;28;20036;-75
2023/05/07 00:48:46;;;;;;;6.00;2.30;;;;;;;12.42;100.00;98642.31;5034350;28;20053;-75
2023/05/07 00:51:12;;;;;;;3.70;1.75;;;;;;;12.20;100.00;98611.97;5028466;28;20064;-74
2023/05/07 00:53:38;;;;;;;3.00;1.77;;;;;;;12.40;100.00;98635.44;5018469;28;20030;-75
2023/05/07 00:56:06;;;;;;;3.40;1.50;;;;;;;12.36;100.00;98653.19;5031949;28;20032;-75
2023/05/07 00:58:32;;;;;;;1.75;1.48;;;;;;;12.15;100.00;98624.53;5018671;28;20075;-74
2023/05/07 01:00:57;;;;;;;2.92;1.42;;;;;;;12.01;100.00;98610.22;5022781;28;20106;-76
2023/05/07 01:03:23;;;;;;;4.03;1.65;;;;;;;11.83;100.00;98605.50;5032055;28;20507;-74
2023/05/07 01:05:50;;;;;;;3.47;1.45;;;;;;;11.73;100.00;98595.13;5030917;28;20036;-76
2023/05/07 01:08:16;;;;;;;3.25;1.50;;;;;;;11.71;100.00;98608.06;5007548;28;20102;-71
2023/05/07 01:10:42;;;;;;;2.25;1.60;;;;;;;11.75;100.00;98630.16;5027935;28;20112;-75
2023/05/07 01:13:13;;;;;;;3.10;1.58;;;;;;;11.77;100.00;98647.03;5028227;28;20021;-75
2023/05/07 01:15:40;;;;;;;2.55;1.73;;;;;;;11.65;100.00;98629.75;5023513;28;20063;-73
2023/05/07 01:18:06;;;;;;;3.05;1.60;;;;;;;11.72;100.00;98644.13;5029764;28;20072;-76
2023/05/07 01:20:32;;;;;;;2.45;1.65;;;;;;;11.71;100.00;98646.00;5027402;28;20468;-75
2023/05/07 01:22:57;;;;;;;5.05;2.65;;;;;;;11.55;100.00;98620.22;5010214;28;20396;-74
2023/05/07 01:25:23;;;;;;;2.50;1.67;;;;;;;11.60;100.00;98643.94;5030962;28;20100;-74
2023/05/07 01:27:48;;;;;;;2.20;1.55;;;;;;;11.54;100.00;98623.13;5013298;28;20107;-75
2023/05/07 01:30:13;;;;;;;7.20;2.05;;;;;;;11.42;100.00;98609.41;5031048;28;20029;-75
2023/05/07 01:32:39;;;;;;;1.67;1.20;;;;;;;11.66;100.00;98636.84;5021464;28;20032;-76
2023/05/07 01:35:07;;;;;;;3.45;1.52;;;;;;;11.44;100.00;98603.78;5011633;28;20081;-74
2023/05/07 01:37:33;;;;;;;4.88;1.40;;;;;;;11.64;100.00;98645.19;5025575;28;20029;-74
2023/05/07 01:40:00;;;;;;;3.92;1.40;;;;;;;11.55;100.00;98625.66;5030955;28;20476;-75
2023/05/07 01:42:26;;;;;;;2.28;1.30;;;;;;;11.49;100.00;98620.25;5004897;28;20128;-75
2023/05/07 01:44:51;;;;;;;4.25;1.40;;;;;;;11.46;100.00;98618.78;5024854;28;20112;-75
2023/05/07 01:47:17;;;;;;;4.25;1.70;;;;;;;11.35;100.00;98612.16;5021346;28;20013;-75
2023/05/07 01:49:42;;;;;;;4.50;1.35;;;;;;;11.43;100.00;98637.34;5030128;28;20029;-74
2023/05/07 01:52:09;;;;;;;2.67;1.38;;;;;;;11.37;100.00;98623.63;4994951;28;1048451;-76
2023/05/07 01:54:34;;;;;;;2.35;1.40;;;;;;;11.34;100.00;98621.34;5013021;28;20029;-75
2023/05/07 01:57:00;;;;;;;2.75;1.70;;;;;;;11.29;100.00;98625.69;5022818;28;20030;-76
2023/05/07 01:59:25;;;;;;;10.13;1.95;;;;;;;11.24;100.00;98622.78;5020291;28;20449;-75
2023/05/07 02:01:50;;;;;;;2.70;1.90;;;;;;;11.23;100.00;98624.69;5019110;28;20035;-73
2023/05/07 02:04:15;;;;;;;3.03;1.88;;;;;;;11.13;100.00;98610.75;5030004;28;20120;-75
2023/05/07 02:06:41;;;;;;;8.40;2.47;;;;;;;11.23;100.00;98615.72;5022485;28;20618;-74
2023/05/07 02:09:06;;;;;;;2.88;1.55;;;;;;;11.38;100.00;98624.44;5029782;28;20048;-76
2023/05/07 02:11:31;;;;;;;3.08;1.73;;;;;;;11.55;100.00;98643.75;5013516;28;20033;-76
2023/05/07 02:13:57;;;;;;;4.18;1.60;;;;;;;11.41;100.00;98624.84;5029899;28;20033;-74
2023/05/07 02:16:23;;;;;;;6.88;1.70;;;;;;;11.33;100.00;98616.13;5030700;28;20025;-75
2023/05/07 02:18:48;;;;;;;3.22;1.45;;;;;;;11.33;100.00;98627.78;5008445;28;20018;-75
2023/05/07 02:21:14;;;;;;;3.35;1.83;;;;;;;11.27;100.00;98625.94;5023471;28;20029;-76
2023/05/07 02:23:39;;;;;;;3.20;1.88;;;;;;;11.26;100.00;98637.78;5030424;28;20163;-75
2023/05/07 02:26:05;;;;;;;2.63;2.08;;;;;;;11.21;100.00;98623.22;5029300;28;20025;-74
2023/05/07 02:28:30;;;;;;;5.68;1.65;;;;;;;11.24;100.00;98649.88;5031339;28;20439;-74
2023/05/07 02:30:58;;;;;;;2.85;1.48;;;;;;;11.21;100.00;98643.00;5012953;28;20048;-74
2023/05/07 02:33:23;;;;;;;2.70;1.73;;;;;;;11.14;100.00;98637.63;5030107;28;20386;-74
2023/05/07 02:35:49;;;;;;;2.58;1.88;;;;;;;11.17;100.00;98628.25;5003115;28;20026;-75
2023/05/07 02:38:14;;;;;;;2.13;1.50;;;;;;;11.14;100.00;98639.50;5025761;28;20032;-76
2023/05/07 02:40:39;;;;;;;2.78;1.50;;;;;;;11.31;100.00;98645.28;5018871;28;20108;-74
2023/05/07 02:43:05;;;;;;;3.85;2.00;;;;;;;10.97;100.00;98612.84;5026939;28;20503;-75
2023/05/07 02:45:32;;;;;;;3.10;2.00;;;;;;;10.97;100.00;98623.69;5034972;28;20026;-74
2023/05/07 02:47:57;;;;;;;3.38;2.05;;;;;;;11.06;100.00;98647.84;5036799;28;20056;-74
2023/05/07 02:50:22;;;;;;;8.52;2.20;;;;;;;10.72;100.00;98609.97;5032667;28;20034;-76
2023/05/07 02:52:48;;;;;;;3.70;2.22;;;;;;;10.92;100.00;98647.00;5039795;28;20108;-73
2023/05/07 02:55:13;;;;;;;2.83;2.00;;;;;;;10.84;100.00;98639.09;5031502;28;20398;-75
2023/05/07 02:57:39;;;;;;;7.03;2.53;;;;;;;10.92;100.00;98657.84;5020218;28;20525;-75
2023/05/07 03:00:16;;;;;;;5.25;2.47;;;;;;;10.85;100.00;98657.84;5021573;28;20033;-74
2023/05/07 03:02:41;;;;;;;3.78;2.40;;;;;;;10.87;100.00;98671.16;5034662;28;20084;-74
2023/05/07 03:05:06;;;;;;;5.47;2.50;;;;;;;10.63;100.00;98632.03;5017089;28;20041;-75
2023/05/07 03:07:31;;;;;;;6.55;2.60;;;;;;;10.41;100.00;98590.84;5033940;28;20021;-77
2023/05/07 03:09:57;;;;;;;4.50;2.60;;;;;;;10.75;100.00;98646.63;5027101;28;20036;-76
2023/05/07 03:12:22;;;;;;;4.05;2.90;;;;;;;10.63;100.00;98640.97;5031620;28;20028;-74
2023/05/07 03:14:47;;;;;;;3.72;2.50;;;;;;;10.74;100.00;98648.50;5016252;28;20563;-75
2023/05/07 03:17:13;;;;;;;5.22;3.20;;;;;;;10.68;100.00;98634.94;5033683;28;20017;-74
2023/05/07 03:19:38;;;;;;;6.13;2.50;;;;;;;10.55;100.00;98629.53;5034487;28;20419;-76
2023/05/07 03:22:03;;;;;;;4.78;2.95;;;;;;;10.61;100.00;98658.44;5034025;28;20116;-75
2023/05/07 03:24:28;;;;;;;4.00;2.40;;;;;;;10.49;100.00;98650.13;5027341;28;20510;-74
2023/05/07 03:26:54;;;;;;;6.20;2.67;;;;;;;10.43;100.00;98632.03;5031538;28;20030;-74
2023/05/07 03:29:19;;;;;;;5.03;2.60;;;;;;;10.39;100.00;98622.66;5022192;28;20104;-74
2023/05/07 03:31:45;;;;;;;4.88;2.78;;;;;;;10.31;100.00;98613.69;5034166;28;20029;-74
2023/05/07 03:34:10;;;;;;;7.68;2.92;;;;;;;10.33;100.00;98620.78;5014314;28;20048;-76
2023/05/07 03:36:35;;;;;;;5.72;3.00;;;;;;;10.46;100.00;98642.44;5025590;28;20602;-75
2023/05/07 03:39:01;;;;;;;8.88;2.70;;;;;;;10.45;100.00;98654.28;5015415;28;20030;-76
2023/05/07 03:41:26;;;;;;;5.88;3.00;;;;;;;10.49;100.00;98652.84;5018404;28;20484;-76
2023/05/07 03:43:51;;;;;;;7.13;2.97;;;;;;;10.39;100.00;98620.78;5008080;28;20050;-72
2023/05/07 03:46:16;;;;;;;3.80;2.70;;;;;;;10.21;100.00;98601.59;5032055;28;20029;-76
2023/05/07 03:48:42;;;;;;;5.07;2.40;;;;;;;10.40;100.00;98621.59;5034034;28;20025;-76
2023/05/07 03:51:07;;;;;;;4.63;2.15;;;;;;;10.55;100.00;98643.88;5031964;28;20033;-75
2023/05/07 03:53:32;;;;;;;3.92;2.10;;;;;;;10.30;100.00;98625.56;5033316;28;20021;-74
2023/05/07 03:55:57;;;;;;;3.38;2.00;;;;;;;10.26;100.00;98624.28;5032817;28;20033;-74
2023/05/07 03:58:23;;;;;;;3.83;1.75;;;;;;;10.18;100.00;98610.13;5033222;28;20026;-75
2023/05/07 04:00:48;;;;;;;3.30;1.90;;;;;;;10.30;100.00;98651.78;5026110;28;20025;-76
2023/05/07 04:03:14;;;;;;;3.10;1.90;;;;;;;10.33;100.00;98655.94;5033847;28;20559;-74
2023/05/07 04:05:39;;;;;;;5.18;2.10;;;;;;;10.27;100.00;98638.63;5033389;28;20032;-73
2023/05/07 04:08:05;;;;;;;3.03;1.80;;;;;;;10.44;100.00;98658.03;5032719;28;20021;-73
2023/05/07 04:10:30;;;;;;;8.68;1.92;;;;;;;10.20;100.00;98633.22;5031109;28;20056;-72
2023/05/07 04:12:56;;;;;;;2.42;1.63;;;;;;;10.31;100.00;98646.16;5015617;28;20167;-74
2023/05/07 04:15:23;;;;;;;3.05;2.00;;;;;;;10.33;100.00;98635.13;5030157;28;20029;-74
2023/05/07 04:17:48;;;;;;;3.33;2.00;;;;;;;10.44;100.00;98660.75;5039700;28;20029;-74
2023/05/07 04:20:17;;;;;;;3.20;1.92;;;;;;;10.44;100.00;98650.75;5033385;28;20029;-75
2023/05/07 04:22:43;;;;;;;4.65;2.13;;;;;;;10.47;100.00;98661.16;5016260;28;20384;-75
2023/05/07 04:25:09;;;;;;;5.70;2.55;;;;;;;10.63;100.00;98686.13;5011416;28;20052;-75
2023/05/07 04:27:34;;;;;;;3.15;2.10;;;;;;;10.54;100.00;98661.16;5032196;28;20655;-76
2023/05/07 04:30:00;;;;;;;5.55;2.00;;;;;;;10.64;100.00;98661.59;5025769;28;20454;-76
2023/05/07 04:32:26;;;;;;;3.33;1.98;;;;;;;10.79;100.00;98665.97;5017179;28;20029;-75
2023/05/07 04:34:51;;;;;;;3.10;1.65;;;;;;;10.88;100.00;98678.25;5017434;28;20032;-76
2023/05/07 04:37:16;;;;;;;2.55;1.90;;;;;;;10.93;100.00;98656.81;5022737;28;20029;-75
2023/05/07 04:39:42;;;;;;;2.80;1.95;;;;;;;11.22;100.00;98681.78;5015876;28;20109;-75
2023/05/07 04:42:08;;;;;;;3.45;2.13;;;;;;;11.08;100.00;98635.75;5032964;28;20510;-76
2023/05/07 04:44:34;;;;;;;2.65;1.77;;;;;;;11.25;100.00;98635.31;5034371;28;20021;-76
2023/05/07 04:47:00;;;;;;;3.13;2.28;;;;;;;11.57;100.00;98666.88;5032657;28;20414;-76
2023/05/07 04:49:25;;;;;;;5.07;2.05;;;;;;;11.77;100.00;98664.13;5031763;28;20461;-76
2023/05/07 04:51:50;;;;;;;3.28;1.88;;;;;;;11.81;100.00;98656.38;5031572;28;20116;-73
2023/05/07 04:54:16;;;;;;;4.00;2.03;;;;;;;11.96;100.00;98656.97;5029961;28;20053;-78
2023/05/07 04:56:41;;;;;;;5.03;2.38;;;;;;;12.06;100.00;98672.78;5016146;28;20033;-79
2023/05/07 04:59:07;;;;;;;3.45;2.05;;;;;;;12.01;100.00;98643.59;5025083;28;20081;-81
2023/05/07 05:01:33;;;;;;;5.22;1.95;;;;;;;12.31;100.00;98669.31;5015864;28;20395;-76
2023/05/07 05:03:59;;;;;;;4.05;2.20;;;;;;;12.49;100.00;98682.97;5034878;28;20032;-75
2023/05/07 05:06:25;;;;;;;4.90;1.88;;;;;;;12.34;100.00;98650.72;5019301;28;20040;-78
2023/05/07 05:08:50;;;;;;;5.90;2.22;;;;;;;12.60;100.00;98676.00;5014157;28;20025;-74
2023/05/07 05:11:15;;;;;;;4.65;2.47;;;;;;;12.59;100.00;98663.50;5028720;28;20439;-73
2023/05/07 05:13:41;;;;;;;7.03;1.67;;;;;;;12.41;100.00;98661.53;5031447;28;20025;-72
2023/05/07 05:16:06;;;;;;;3.35;2.05;;;;;;;12.60;100.00;98662.44;5031174;28;20041;-71
2023/05/07 05:18:32;;;;;;;3.72;2.40;;;;;;;12.63;100.00;98667.44;5030403;28;20026;-75
2023/05/07 05:20:57;;;;;;;3.72;2.00;;;;;;;12.73;100.00;98681.31;5014262;28;20669;-76
2023/05/07 05:23:23;;;;;;;2.92;2.20;;;;;;;12.74;100.00;98687.63;5031223;28;20017;-71
2023/05/07 05:25:48;;;;;;;4.50;2.00;;;;;;;12.55;100.00;98676.69;5030544;28;20093;-71
2023/05/07 05:28:13;;;;;;;4.13;2.47;;;;;;;12.58;100.00;98670.81;5011985;28;20041;-72
2023/05/07 05:30:39;;;;;;;5.50;2.30;;;;;;;12.62;100.00;98669.28;5030149;28;20109;-73
2023/05/07 05:33:04;;;;;;;5.90;2.38;;;;;;;12.79;100.00;98687.78;5029182;28;20498;-72
2023/05/07 05:35:30;;;;;;;5.43;2.78;;;;;;;12.63;100.00;98670.16;5031713;28;20117;-72
2023/05/07 05:37:55;;;;;;;3.05;2.22;;;;;;;12.66;100.00;98681.41;5031328;28;20021;-75
2023/05/07 05:40:21;;;;;;;6.05;2.80;;;;;;;12.82;100.00;98677.31;5018007;28;20046;-75
2023/05/07 05:42:46;;;;;;;12.52;2.78;;;;;;;12.77;100.00;98660.03;5010333;28;20107;-76
2023/05/07 05:45:11;;;;;;;4.07;2.30;;;;;;;13.00;100.00;98670.28;5021855;28;20029;-75
2023/05/07 05:47:37;;;;;;;5.80;2.58;;;;;;;13.33;100.00;98686.28;5017612;28;20463;-78
2023/05/07 05:50:03;;;;;;;3.33;2.55;;;;;;;13.47;100.00;98687.81;5028102;28;20032;-75
2023/05/07 05:52:28;;;;;;;4.00;2.05;;;;;;;13.35;100.00;98654.28;5029031;28;20079;-75
2023/05/07 05:54:54;;;;;;;7.28;2.50;;;;;;;13.67;100.00;98679.44;5044774;22;20484;-62
2023/05/07 05:57:20;;;;;;;6.47;2.63;;;;;;;13.97;100.00;98682.22;5013957;28;20404;-62
2023/05/07 05:59:47;;;;;;;4.10;2.80;;;;;;;14.19;100.00;98689.91;5011902;28;20116;-62
2023/05/07 06:02:12;;;;;;;3.65;2.63;;;;;;;14.64;100.00;98679.44;5011427;28;20029;-62
2023/05/07 06:04:37;;;;;;;4.47;2.80;;;;;;;14.96;100.00;98684.63;5032023;28;20029;-62
2023/05/07 06:07:03;;;;;;;6.13;2.55;;;;;;;15.05;100.00;98674.19;5013229;28;20033;-62
2023/05/07 06:09:28;;;;;;;3.22;2.70;;;;;;;15.13;100.00;98685.56;5015496;28;20029;-62
2023/05/07 06:11:54;;;;;;;2.88;2.28;;;;;;;15.16;100.00;98664.38;5013843;28;20025;-62
2023/05/07 06:14:19;;;;;;;2.70;2.05;;;;;;;15.46;100.00;98673.25;5016038;28;20025;-62
2023/05/07 06:16:45;;;;;;;4.55;2.13;;;;;;;15.62;100.00;98665.44;5013097;28;20032;-63
2023/05/07 06:19:10;;;;;;;5.88;2.22;;;;;;;15.92;100.00;98673.44;5016130;28;20021;-63
2023/05/07 06:21:35;;;;;;;4.20;2.00;;;;;;;17.01;100.00;98670.59;5008401;28;20496;-63
2023/05/07 06:24:01;;;;;;;3.22;1.85;;;;;;;19.90;100.00;98655.84;5020859;28;20139;-63
2023/05/07 06:26:26;;;;;;;2.97;1.70;;;;;;;22.35;100.00;98673.47;5005928;28;20137;-62
2023/05/07 06:28:52;;;;;;;7.05;2.00;;;;;;;25.20;75.87;98678.19;5022775;28;20057;-63
2023/05/07 06:31:22;;;;;;;5.50;2.00;;;;;;;26.50;69.46;98682.63;5027394;28;20439;-62
2023/05/07 06:33:49;;;;;;;2.88;1.70;;;;;;;25.96;70.26;98679.59;5015612;28;20055;-63
2023/05/07 06:36:14;;;;;;;3.03;1.40;;;;;;;28.27;60.71;98672.03;5018543;28;20033;-62
2023/05/07 06:38:40;;;;;;;5.50;1.15;;;;;;;30.77;53.85;98667.38;5023132;28;20029;-63
2023/05/07 06:41:06;;;;;;;2.20;1.30;;;;;;;30.65;50.32;98672.88;5018224;28;20048;-63
2023/05/07 06:43:31;;;;;;;1.30;1.00;;;;;;;32.09;46.55;98662.94;5008460;28;20025;-63
2023/05/07 06:45:56;;;;;;;7.75;2.10;;;;;;;31.12;46.58;98681.06;5013857;28;20036;-63
2023/05/07 06:48:22;;;;;;;3.35;1.23;;;;;;;31.69;46.78;98682.34;5020519;28;20460;-62
2023/05/07 06:50:47;;;;;;;3.05;1.27;;;;;;;32.34;45.71;98674.13;5018245;28;20030;-63
2023/05/07 06:53:12;;;;;;;4.32;1.17;;;;;;;30.90;46.62;98668.28;5026078;28;20021;-63
2023/05/07 06:55:38;;;;;;;3.75;1.38;;;;;;;29.51;50.58;98672.56;5014890;28;20025;-63
2023/05/07 06:58:05;;;;;;;2.70;1.15;;;;;;;27.99;55.07;98645.63;5011397;28;20108;-63
2023/05/07 07:00:31;;;;;;;1.90;1.20;;;;;;;26.68;57.60;98672.53;5026174;28;20037;-63
2023/05/07 07:02:57;;;;;;;1.85;1.10;;;;;;;29.21;53.63;98657.72;5023847;28;20420;-62
2023/05/07 07:05:22;;;;;;;2.85;1.00;;;;;;;31.64;46.76;98641.41;5015738;28;20022;-62
2023/05/07 07:07:52;;;;;;;3.20;1.10;;;;;;;32.18;44.59;98643.25;5021906;28;20088;-65
2023/05/07 07:10:23;;;;;;;2.03;1.05;;;;;;;31.49;45.63;98644.88;5020103;28;20037;-59
2023/05/07 07:12:49;;;;;;;1.65;1.17;;;;;;;28.67;51.46;98644.13;5015485;28;20032;-59
2023/05/07 07:15:15;;;;;;;3.90;1.15;;;;;;;28.62;53.22;98644.28;5024275;28;20120;-59
2023/05/07 07:17:41;;;;;;;1.83;1.00;;;;;;;30.62;48.61;98657.63;5004095;28;20061;-59
2023/05/07 07:20:07;;;;;;;2.00;0.82;;;;;;;32.55;45.36;98649.63;5011660;28;20369;-59
2023/05/07 07:22:32;;;;;;;1.67;0.88;;;;;;;32.74;44.97;98654.59;5012595;28;20022;-59
2023/05/07 07:24:58;;;;;;;2.22;1.00;;;;;;;30.38;46.14;98661.09;5007218;28;20071;-60
2023/05/07 07:27:23;;;;;;;3.10;1.13;;;;;;;28.26;52.27;98644.53;5020606;28;20108;-59
2023/05/07 07:29:49;;;;;;;1.70;1.27;;;;;;;26.93;55.24;98656.41;5013686;28;20029;-59
2023/05/07 07:32:14;;;;;;;5.43;1.23;;;;;;;27.03;58.06;98651.41;5015044;28;20017;-59
2023/05/07 07:34:40;;;;;;;2.92;0.90;;;;;;;29.44;53.00;98647.16;5017126;28;20057;-59
2023/05/07 07:37:06;;;;;;;1.40;0.85;;;;;;;33.58;44.64;98637.78;5020218;28;20033;-59
2023/05/07 07:39:32;;;;;;;1.40;0.98;;;;;;;36.54;39.76;98643.47;5006925;28;20033;-59
2023/05/07 07:41:57;;;;;;;1.95;0.80;;;;;;;38.61;37.16;98644.84;5009472;28;20346;-59
2023/05/07 07:44:23;;;;;;;1.48;0.93;;;;;;;38.97;35.04;98645.06;5009617;28;20112;-59
2023/05/07 07:46:48;;;;;;;1.33;0.75;;;;;;;41.02;32.99;98641.06;5027629;28;20381;-60
2023/05/07 07:49:14;;;;;;;1.42;0.70;;;;;;;41.07;32.18;98642.66;5023998;28;20025;-59
2023/05/07 07:51:40;;;;;;;2.35;0.90;;;;;;;40.72;31.11;98642.41;5017820;28;20025;-65
2023/05/07 07:54:06;;;;;;;5.30;0.80;;;;;;;40.64;31.20;98651.28;5018717;28;20065;-64
2023/05/07 07:56:33;;;;;;;1.27;0.80;;;;;;;40.78;31.21;98651.28;5015986;28;20120;-64
2023/05/07 07:58:59;;;;;;;1.17;0.52;;;;;;;38.49;33.06;98645.16;5022199;28;20116;-64
2023/05/07 08:01:25;;;;;;;1.00;0.60;;;;;;;36.37;33.66;98651.28;5031692;28;20120;-64
2023/05/07 08:03:53;;;;;;;0.70;0.60;;;;;;;34.50;34.15;98660.09;5013451;28;20124;-59
2023/05/07 08:06:18;;;;;;;0.65;0.50;;;;;;;31.21;39.11;98659.47;5022569;28;20112;-59
2023/05/07 08:08:44;;;;;;;3.55;0.68;;;;;;;29.71;41.53;98662.69;5016373;28;20113;-59
2023/05/07 08:11:10;;;;;;;1.35;0.40;;;;;;;30.98;40.71;98659.84;5016439;28;20121;-58
2023/05/07 08:13:36;;;;;;;3.72;0.60;;;;;;;34.12;36.99;98660.81;5020542;28;20029;-60
2023/05/07 08:16:02;;;;;;;3.65;1.05;;;;;;;35.74;35.34;98655.47;5030265;28;20481;-56
2023/05/07 08:18:28;;;;;;;1.45;0.68;;;;;;;36.76;34.55;98651.06;5019692;28;20117;-57
2023/05/07 08:20:54;;;;;;;0.95;0.50;;;;;;;39.50;31.52;98652.91;5021341;28;20057;-56
2023/05/07 08:23:20;;;;;;;1.50;0.60;;;;;;;37.14;33.18;98651.16;5011941;28;20087;-57
2023/05/07 08:25:46;;;;;;;5.72;0.70;;;;;;;37.39;32.95;98645.78;5008871;28;20040;-57
2023/05/07 08:28:11;;;;;;;1.50;0.70;;;;;;;37.22;32.20;98650.03;5009513;28;20389;-57
2023/05/07 08:30:37;;;;;;;1.85;0.80;;;;;;;36.14;32.98;98648.53;5012854;28;20033;-57
2023/05/07 08:33:02;;;;;;;2.80;0.63;;;;;;;36.64;33.03;98640.81;5014603;28;20445;-57
2023/05/07 08:35:28;;;;;;;2.17;0.75;;;;;;;36.31;33.12;98644.34;5016125;28;20091;-56
2023/05/07 08:37:54;;;;;;;0.85;0.60;;;;;;;37.88;33.01;98636.19;5014908;28;20496;-56
2023/05/07 08:40:24;;;;;;;1.25;0.73;;;;;;;37.88;32.30;98641.84;5016197;28;20026;-63
2023/05/07 08:42:52;;;;;;;0.95;0.60;;;;;;;37.66;31.67;98638.84;5021229;28;20032;-63
2023/05/07 08:45:19;;;;;;;1.42;0.80;;;;;;;35.96;33.98;98642.56;5011324;28;20033;-64
2023/05/07 08:47:50;;;;;;;1.25;0.60;;;;;;;36.49;33.16;98638.97;5017648;28;20457;-64
2023/05/07 08:50:15;;;;;;;2.55;0.88;;;;;;;36.64;33.25;98640.03;5039277;28;20457;-64
2023/05/07 08:52:41;;;;;;;2.17;0.68;;;;;;;36.66;32.83;98640.47;5009863;28;20045;-63
2023/05/07 08:55:08;;;;;;;2.50;0.90;;;;;;;35.50;33.96;98651.00;5013271;28;20032;-64
2023/05/07 08:57:34;;;;;;;1.02;0.68;;;;;;;35.71;33.81;98644.97;5016028;28;20492;-64
2023/05/07 08:59:59;;;;;;;1.15;1.02;;;;;;;36.27;33.49;98640.66;5013735;28;20059;-64
2023/05/07 09:02:25;;;;;;;1.98;0.85;;;;;;;36.46;33.49;98644.56;5011880;28;20025;-63
2023/05/07 09:04:50;;;;;;;1.52;0.90;;;;;;;35.18;33.94;98649.56;5007023;28;20026;-64
2023/05/07 09:07:16;;;;;;;2.10;1.00;;;;;;;35.12;34.75;98649.03;5013714;28;20033;-62
2023/05/07 09:09:44;;;;;;;2.53;0.70;;;;;;;33.89;35.57;98646.59;5013851;28;20025;-61
2023/05/07 09:12:09;;;;;;;1.17;0.73;;;;;;;34.79;35.16;98652.34;5017843;28;20358;-62
2023/05/07 09:14:35;;;;;;;0.85;0.50;;;;;;;36.71;33.52;98645.75;5012741;28;20044;-62
2023/05/07 09:17:00;;;;;;;1.85;1.00;;;;;;;35.10;34.89;98643.78;5024137;28;20029;-62
2023/05/07 09:19:26;;;;;;;1.35;0.70;;;;;;;33.88;35.50;98645.78;5013304;28;20033;-63
2023/05/07 09:22:03;;;;;;;2.70;0.88;;;;;;;32.47;37.35;98645.78;5034430;28;20517;-62
2023/05/07 09:24:34;;;;;;;1.95;0.90;;;;;;;31.86;39.12;98651.38;5011657;28;20496;-62
2023/05/07 09:27:03;;;;;;;1.35;0.90;;;;;;;31.39;38.88;98640.56;5010637;28;20487;-62
2023/05/07 09:29:29;;;;;;;2.72;1.00;;;;;;;32.66;37.71;98647.97;5008002;28;20033;-62
2023/05/07 09:31:56;;;;;;;3.17;1.10;;;;;;;33.08;36.84;98641.19;5015403;28;20028;-62
2023/05/07 09:34:22;;;;;;;1.08;0.80;;;;;;;34.70;34.97;98641.31;5032149;28;20029;-62
2023/05/07 09:36:47;;;;;;;0.85;0.60;;;;;;;35.37;35.17;98641.09;5014087;28;20358;-62
2023/05/07 09:39:13;;;;;;;1.60;0.80;;;;;;;36.23;33.17;98628.53;5012228;28;20025;-62
2023/05/07 09:41:46;;;;;;;1.00;0.60;;;;;;;36.09;33.12;98633.94;5012780;28;20029;-63
2023/05/07 09:44:14;;;;;;;2.05;1.15;;;;;;;35.65;33.72;98634.38;5022108;28;20028;-63
2023/05/07 09:46:43;;;;;;;1.15;0.88;;;;;;;36.53;33.31;98631.41;5028947;28;20346;-63
2023/05/07 09:49:13;;;;;;;1.17;0.80;;;;;;;36.98;31.77;98632.41;5030178;28;20369;-63
2023/05/07 09:51:59;;;;;;;2.05;0.70;;;;;;;37.52;31.34;98624.59;5016196;28;20033;-62
2023/05/07 09:54:25;;;;;;;2.28;0.70;;;;;;;36.65;33.22;98630.34;5009417;28;20133;-62
2023/05/07 09:56:52;;;;;;;1.15;0.60;;;;;;;36.20;31.84;98632.09;5018548;28;20102;-62
2023/05/07 09:59:19;;;;;;;1.27;0.80;;;;;;;36.24;31.42;98615.28;5025635;28;20029;-62
2023/05/07 10:01:45;;;;;;;2.53;0.73;;;;;;;37.12;30.92;98620.50;5014006;28;20048;-62
2023/05/07 10:04:11;;;;;;;1.10;0.80;;;;;;;37.51;31.65;98628.59;5007012;28;20030;-63
2023/05/07 10:06:37;;;;;;;1.42;0.70;;;;;;;38.01;30.97;98614.94;5007871;28;20052;-62
2023/05/07 10:09:05;;;;;;;2.28;1.98;;;;;;;37.70;31.49;98619.09;5014590;28;20042;-62
2023/05/07 10:11:33;;;;;;;1.60;1.20;;;;;;;36.17;31.84;98616.78;5029717;28;20299;-62
2023/05/07 10:14:02;;;;;;;2.47;1.73;;;;;;;37.34;31.02;98612.28;5016227;28;20044;-62
2023/05/07 10:16:30;;;;;;;1.33;0.95;;;;;;;36.27;31.21;98603.25;5012206;28;20103;-62
2023/05/07 10:18:57;;;;;;;2.92;0.70;;;;;;;35.74;32.48;98618.06;5014210;28;20044;-62
2023/05/07 10:21:23;;;;;;;2.83;0.90;;;;;;;36.56;31.11;98607.31;5012139;28;20088;-63
2023/05/07 10:24:24;;;;;;;1.42;0.75;;;;;;;37.26;30.27;98606.56;5028201;28;20037;-62
2023/05/07 10:26:52;;;;;;;4.65;0.80;;;;;;;36.70;31.51;98607.47;4982567;28;20044;-62
2023/05/07 10:29:26;;;;;;;3.53;0.83;;;;;;;36.88;30.72;98601.25;5008465;28;20373;-62
2023/05/07 10:31:59;;;;;;;4.07;2.80;;;;;;;38.22;29.12;98602.19;5013229;28;20431;-62
2023/05/07 10:34:34;;;;;;;4.82;3.88;;;;;;;37.88;29.45;98597.47;5003969;28;20076;-62
2023/05/07 10:37:00;;;;;;;3.20;1.83;;;;;;;37.25;29.96;98601.28;5013409;28;20041;-62
2023/05/07 10:39:26;;;;;;;9.38;4.78;;;;;;;36.67;31.31;98598.97;5017100;28;20029;-58
2023/05/07 10:41:52;;;;;;;6.22;3.95;;;;;;;37.33;31.17;98590.91;5020930;28;20064;-59
2023/05/07 10:44:28;;;;;;;16.23;13.02;;;;;;;37.66;31.02;98588.00;5015109;28;20486;-59
2023/05/07 10:47:09;;;;;;;3.38;1.95;;;;;;;38.44;30.55;98587.00;5015124;28;20131;-61
2023/05/07 10:49:36;;;;;;;2.90;1.65;;;;;;;38.68;30.04;98588.34;5013725;28;20021;-62
2023/05/07 10:52:15;;;;;;;1.75;1.00;;;;;;;38.42;30.93;98589.38;5027441;28;20040;-63
2023/05/07 10:54:43;;;;;;;2.03;0.70;;;;;;;39.45;29.55;98582.53;5019888;28;20564;-63
2023/05/07 10:57:35;;;;;;;4.60;1.13;;;;;;;41.00;28.70;98585.94;5010132;28;20052;-63
2023/05/07 11:00:01;;;;;;;2.92;0.70;;;;;;;40.38;28.92;98578.88;5009297;28;20041;-62
2023/05/07 11:03:00;;;;;;;1.08;0.95;;;;;;;36.83;31.25;98579.84;5028068;28;20045;-63
2023/05/07 11:05:28;;;;;;;2.75;1.30;;;;;;;34.08;33.93;98581.31;5015359;28;20163;-62
2023/05/07 11:07:58;;;;;;;1.30;0.85;;;;;;;33.77;35.75;98577.31;5016236;28;20038;-62
2023/05/07 11:11:01;;;;;;;2.50;1.30;;;;;;;35.77;32.95;98577.91;5033399;28;20026;-62
2023/05/07 11:13:44;;;;;;;2.00;0.73;;;;;;;37.41;31.71;98578.47;5011683;28;20037;-63
2023/05/07 11:16:24;;;;;;;0.88;0.80;;;;;;;37.67;31.83;98567.03;5010793;28;20084;-62
2023/05/07 11:18:53;;;;;;;1.77;0.82;;;;;;;39.53;29.73;98574.84;5019323;28;20132;-63
2023/05/07 11:21:36;;;;;;;2.58;1.00;;;;;;;39.76;28.90;98571.63;5014351;28;20029;-62
2023/05/07 11:24:03;;;;;;;1.73;0.98;;;;;;;38.91;29.51;98568.25;5029808;28;20048;-63
2023/05/07 11:26:31;;;;;;;3.08;1.27;;;;;;;36.02;31.38;98560.59;5016921;28;20107;-63